Phoenix Cross — MRBQ7 — position and weather

sailwx.info

Track history (hours):
 
Tides and Currents Weather Stations Pressure Air Temp Water Temp Dewpoint Dewpoint Depression Visibility Wind Speed Wind Dir Waves Ship Positions

Phoenix Cross

Last reported at 2015-Mar-31 18:05 UTC. Time now 2015-Apr-02 03:09 UTC.
Position N 54°35' W 001°13'.

Length 30 m; draft 5 m.

Type: Ship. MMSI: 235067452.

Date/timePositionNaut miles runAvg speedWind from/ knotsBaromVisibWave heightAir tempDewpointWater temp
2015-Mar-31 18:05N 54°35' W 001°13'0 0.0
2015-Mar-31 16:34N 54°35' W 001°13'0 0.0
2015-Mar-31 15:31N 54°35' W 001°13'0 0.0
2015-Mar-31 14:34N 54°35' W 001°13'0 0.0
2015-Mar-31 13:33N 54°35' W 001°13'0 0.0
2015-Mar-31 12:32N 54°35' W 001°13'2 2.3
2015-Mar-31 11:33N 54°36' W 001°10'2 2.3
2015-Mar-31 10:33N 54°35' W 001°13'0 0.0
2015-Mar-31 09:33N 54°35' W 001°13'0 0.0
2015-Mar-31 08:33N 54°35' W 001°13'0 0.0
2015-Mar-31 07:34N 54°35' W 001°13'5 0.6
2015-Mar-30 23:12N 54°39' W 001°08'5 0.4
2015-Mar-30 11:20N 54°35' W 001°13'0 0.0
2015-Mar-30 10:33N 54°35' W 001°13'3 2.7
2015-Mar-30 09:33N 54°37' W 001°09'3 2.7
2015-Mar-30 08:32N 54°35' W 001°13'3 3.3
2015-Mar-30 07:34N 54°38' W 001°10'0 0.2
2015-Mar-30 06:33N 54°38' W 001°10'0 0.0
2015-Mar-29 12:34N 54°37' W 001°10'2 1.9
2015-Mar-29 11:33N 54°39' W 001°08'2 1.6
2015-Mar-29 10:33N 54°38' W 001°09'2 1.6
2015-Mar-29 09:33N 54°36' W 001°10'1 1.5
2015-Mar-29 08:33N 54°37' W 001°09'3 3.0
2015-Mar-29 07:29N 54°35' W 001°13'0 0.0
2015-Mar-27 17:22N 54°35' W 001°13'0 0.0
2015-Mar-27 16:34N 54°35' W 001°13'0 0.0
2015-Mar-27 15:33N 54°35' W 001°13'0 0.0
2015-Mar-27 14:32N 54°35' W 001°13'0 0.0
2015-Mar-27 13:33N 54°35' W 001°13'0 0.0
2015-Mar-27 12:33N 54°35' W 001°13'0 0.0
2015-Mar-27 11:33N 54°35' W 001°13'0 0.3
2015-Mar-27 10:25N 54°35' W 001°12'3 3.4
2015-Mar-27 09:33N 54°38' W 001°10'2 2.2
2015-Mar-27 08:33N 54°35' W 001°11'1 1.1
2015-Mar-27 07:32N 54°35' W 001°13'0 0.0
2015-Mar-26 16:04N 54°35' W 001°12'0 0.2
2015-Mar-26 15:32N 54°35' W 001°13'3 2.9
2015-Mar-26 14:34N 54°37' W 001°09'1 1.1
2015-Mar-26 13:33N 54°36' W 001°10'2 1.7
2015-Mar-26 12:32N 54°35' W 001°13'0 0.0
2015-Mar-26 11:33N 54°35' W 001°13'0 0.0
2015-Mar-26 10:34N 54°35' W 001°13'0 0.0
2015-Mar-26 09:33N 54°35' W 001°13'0 0.0
2015-Mar-26 08:34N 54°35' W 001°13'0 0.0
2015-Mar-26 07:32N 54°35' W 001°13'3 2.9
2015-Mar-26 06:27N 54°37' W 001°09'1 0.1
2015-Mar-25 18:16N 54°39' W 001°09'1 1.8
2015-Mar-25 17:32N 54°37' W 001°09'0 0.0
2015-Mar-25 16:34N 54°37' W 001°09'0 0.1
2015-Mar-25 15:32N 54°37' W 001°09'3 3.2
2015-Mar-25 14:32N 54°35' W 001°13'0 0.0
2015-Mar-25 13:31N 54°35' W 001°13'0 0.0
2015-Mar-25 12:33N 54°35' W 001°13'0 0.0
2015-Mar-25 11:33N 54°35' W 001°13'0 0.0
2015-Mar-25 10:32N 54°35' W 001°13'0 0.0
2015-Mar-25 09:32N 54°35' W 001°13'0 0.0
2015-Mar-25 08:32N 54°35' W 001°13'0 0.0
2015-Mar-25 07:32N 54°35' W 001°13'0 0.0
2015-Mar-24 17:10N 54°35' W 001°13'0 0.0
2015-Mar-24 16:31N 54°35' W 001°13'0 0.0
2015-Mar-24 15:33N 54°35' W 001°13'0 0.0
2015-Mar-24 14:31N 54°35' W 001°13'0 0.0
2015-Mar-24 13:31N 54°35' W 001°13'3 3.4
2015-Mar-24 12:33N 54°38' W 001°10'1 1.4
2015-Mar-24 11:33N 54°36' W 001°10'0 0.0
2015-Mar-24 10:33N 54°36' W 001°10'1 1.2
2015-Mar-24 09:33N 54°37' W 001°09'0 0.3
2015-Mar-24 08:28N 54°37' W 001°10'1 1.0
2015-Mar-24 07:32N 54°38' W 001°09'1 1.0
2015-Mar-24 06:33N 54°37' W 001°09'3 0.2
2015-Mar-23 17:33N 54°35' W 001°13'0 0.0
2015-Mar-23 16:32N 54°35' W 001°13'0 0.0
2015-Mar-23 15:32N 54°35' W 001°13'0 0.0
2015-Mar-23 14:33N 54°35' W 001°13'0 0.0
2015-Mar-23 13:33N 54°35' W 001°13'0 0.0
2015-Mar-23 12:34N 54°35' W 001°13'0 0.0
2015-Mar-23 11:31N 54°35' W 001°13'0 0.0
2015-Mar-23 10:23N 54°35' W 001°13'3 4.1
2015-Mar-23 09:33N 54°38' W 001°09'0 0.4
2015-Mar-23 08:33N 54°37' W 001°09'0 0.5
2015-Mar-23 07:34N 54°38' W 001°10'2 2.1
2015-Mar-23 06:33N 54°36' W 001°11'  
Track history (hours):
 
Tides and Currents Weather Stations Pressure Air Temp Water Temp Dewpoint Dewpoint Depression Visibility Wind Speed Wind Dir Waves Ship Positions

Phoenix Cross

Last reported at 2015-Mar-31 18:05 UTC. Time now 2015-Apr-02 03:09 UTC.
Position N 54°35' W 001°13'.

Length 30 m; draft 5 m.

Type: Ship. MMSI: 235067452.

Date/timePositionNaut miles runAvg speedWind from/ knotsBaromVisibWave heightAir tempDewpointWater temp
2015-Mar-31 18:05N 54°35' W 001°13'0 0.0
2015-Mar-31 16:34N 54°35' W 001°13'0 0.0
2015-Mar-31 15:31N 54°35' W 001°13'0 0.0
2015-Mar-31 14:34N 54°35' W 001°13'0 0.0
2015-Mar-31 13:33N 54°35' W 001°13'0 0.0
2015-Mar-31 12:32N 54°35' W 001°13'2 2.3
2015-Mar-31 11:33N 54°36' W 001°10'2 2.3
2015-Mar-31 10:33N 54°35' W 001°13'0 0.0
2015-Mar-31 09:33N 54°35' W 001°13'0 0.0
2015-Mar-31 08:33N 54°35' W 001°13'0 0.0
2015-Mar-31 07:34N 54°35' W 001°13'5 0.6
2015-Mar-30 23:12N 54°39' W 001°08'5 0.4
2015-Mar-30 11:20N 54°35' W 001°13'0 0.0
2015-Mar-30 10:33N 54°35' W 001°13'3 2.7
2015-Mar-30 09:33N 54°37' W 001°09'3 2.7
2015-Mar-30 08:32N 54°35' W 001°13'3 3.3
2015-Mar-30 07:34N 54°38' W 001°10'0 0.2
2015-Mar-30 06:33N 54°38' W 001°10'0 0.0
2015-Mar-29 12:34N 54°37' W 001°10'2 1.9
2015-Mar-29 11:33N 54°39' W 001°08'2 1.6
2015-Mar-29 10:33N 54°38' W 001°09'2 1.6
2015-Mar-29 09:33N 54°36' W 001°10'1 1.5
2015-Mar-29 08:33N 54°37' W 001°09'3 3.0
2015-Mar-29 07:29N 54°35' W 001°13'0 0.0
2015-Mar-27 17:22N 54°35' W 001°13'0 0.0
2015-Mar-27 16:34N 54°35' W 001°13'0 0.0
2015-Mar-27 15:33N 54°35' W 001°13'0 0.0
2015-Mar-27 14:32N 54°35' W 001°13'0 0.0
2015-Mar-27 13:33N 54°35' W 001°13'0 0.0
2015-Mar-27 12:33N 54°35' W 001°13'0 0.0
2015-Mar-27 11:33N 54°35' W 001°13'0 0.3
2015-Mar-27 10:25N 54°35' W 001°12'3 3.4
2015-Mar-27 09:33N 54°38' W 001°10'2 2.2
2015-Mar-27 08:33N 54°35' W 001°11'1 1.1
2015-Mar-27 07:32N 54°35' W 001°13'0 0.0
2015-Mar-26 16:04N 54°35' W 001°12'0 0.2
2015-Mar-26 15:32N 54°35' W 001°13'3 2.9
2015-Mar-26 14:34N 54°37' W 001°09'1 1.1
2015-Mar-26 13:33N 54°36' W 001°10'2 1.7
2015-Mar-26 12:32N 54°35' W 001°13'0 0.0
2015-Mar-26 11:33N 54°35' W 001°13'0 0.0
2015-Mar-26 10:34N 54°35' W 001°13'0 0.0
2015-Mar-26 09:33N 54°35' W 001°13'0 0.0
2015-Mar-26 08:34N 54°35' W 001°13'0 0.0
2015-Mar-26 07:32N 54°35' W 001°13'3 2.9
2015-Mar-26 06:27N 54°37' W 001°09'1 0.1
2015-Mar-25 18:16N 54°39' W 001°09'1 1.8
2015-Mar-25 17:32N 54°37' W 001°09'0 0.0
2015-Mar-25 16:34N 54°37' W 001°09'0 0.1
2015-Mar-25 15:32N 54°37' W 001°09'3 3.2
2015-Mar-25 14:32N 54°35' W 001°13'0 0.0
2015-Mar-25 13:31N 54°35' W 001°13'0 0.0
2015-Mar-25 12:33N 54°35' W 001°13'0 0.0
2015-Mar-25 11:33N 54°35' W 001°13'0 0.0
2015-Mar-25 10:32N 54°35' W 001°13'0 0.0
2015-Mar-25 09:32N 54°35' W 001°13'0 0.0
2015-Mar-25 08:32N 54°35' W 001°13'0 0.0
2015-Mar-25 07:32N 54°35' W 001°13'0 0.0
2015-Mar-24 17:10N 54°35' W 001°13'0 0.0
2015-Mar-24 16:31N 54°35' W 001°13'0 0.0
2015-Mar-24 15:33N 54°35' W 001°13'0 0.0
2015-Mar-24 14:31N 54°35' W 001°13'0 0.0
2015-Mar-24 13:31N 54°35' W 001°13'3 3.4
2015-Mar-24 12:33N 54°38' W 001°10'1 1.4
2015-Mar-24 11:33N 54°36' W 001°10'0 0.0
2015-Mar-24 10:33N 54°36' W 001°10'1 1.2
2015-Mar-24 09:33N 54°37' W 001°09'0 0.3
2015-Mar-24 08:28N 54°37' W 001°10'1 1.0
2015-Mar-24 07:32N 54°38' W 001°09'1 1.0
2015-Mar-24 06:33N 54°37' W 001°09'3 0.2
2015-Mar-23 17:33N 54°35' W 001°13'0 0.0
2015-Mar-23 16:32N 54°35' W 001°13'0 0.0
2015-Mar-23 15:32N 54°35' W 001°13'0 0.0
2015-Mar-23 14:33N 54°35' W 001°13'0 0.0
2015-Mar-23 13:33N 54°35' W 001°13'0 0.0
2015-Mar-23 12:34N 54°35' W 001°13'0 0.0
2015-Mar-23 11:31N 54°35' W 001°13'0 0.0
2015-Mar-23 10:23N 54°35' W 001°13'3 4.1
2015-Mar-23 09:33N 54°38' W 001°09'0 0.4
2015-Mar-23 08:33N 54°37' W 001°09'0 0.5
2015-Mar-23 07:34N 54°38' W 001°10'2 2.1
2015-Mar-23 06:33N 54°36' W 001°11'  

Dump ship's entire track history